sensor_id;sensor_type;location;lat;lon;timestamp;P1;durP1;ratioP1;P2;durP2;ratioP2
27187;SDS011;14708;50.872;5.306;2022-09-29T00:00:43;3.70;;;2.05;;
27187;SDS011;14708;50.872;5.306;2022-09-29T00:03:11;3.50;;;2.00;;
27187;SDS011;14708;50.872;5.306;2022-09-29T00:05:37;5.57;;;2.38;;
27187;SDS011;14708;50.872;5.306;2022-09-29T00:08:02;3.53;;;2.15;;
27187;SDS011;14708;50.872;5.306;2022-09-29T00:10:28;4.25;;;2.25;;
27187;SDS011;14708;50.872;5.306;2022-09-29T00:12:54;4.57;;;2.17;;
27187;SDS011;14708;50.872;5.306;2022-09-29T00:15:19;5.70;;;2.60;;
27187;SDS011;14708;50.872;5.306;2022-09-29T00:17:45;4.82;;;2.58;;
27187;SDS011;14708;50.872;5.306;2022-09-29T00:20:11;3.25;;;1.98;;
27187;SDS011;14708;50.872;5.306;2022-09-29T00:22:36;3.15;;;2.13;;
27187;SDS011;14708;50.872;5.306;2022-09-29T00:25:02;3.38;;;2.17;;
27187;SDS011;14708;50.872;5.306;2022-09-29T00:27:28;4.00;;;2.33;;
27187;SDS011;14708;50.872;5.306;2022-09-29T00:29:53;3.10;;;1.83;;
27187;SDS011;14708;50.872;5.306;2022-09-29T00:32:19;3.83;;;2.35;;
27187;SDS011;14708;50.872;5.306;2022-09-29T00:34:44;5.25;;;2.13;;
27187;SDS011;14708;50.872;5.306;2022-09-29T00:37:10;4.10;;;1.85;;
27187;SDS011;14708;50.872;5.306;2022-09-29T00:39:35;4.85;;;2.13;;
27187;SDS011;14708;50.872;5.306;2022-09-29T00:42:01;2.90;;;1.77;;
27187;SDS011;14708;50.872;5.306;2022-09-29T00:47:17;3.17;;;2.03;;
27187;SDS011;14708;50.872;5.306;2022-09-29T00:54:40;3.08;;;2.13;;
27187;SDS011;14708;50.872;5.306;2022-09-29T00:57:14;5.70;;;2.55;;
27187;SDS011;14708;50.872;5.306;2022-09-29T00:59:50;3.78;;;2.10;;
27187;SDS011;14708;50.872;5.306;2022-09-29T01:02:26;3.28;;;1.88;;
27187;SDS011;14708;50.872;5.306;2022-09-29T01:04:54;4.63;;;2.15;;
27187;SDS011;14708;50.872;5.306;2022-09-29T01:07:20;3.15;;;2.00;;
27187;SDS011;14708;50.872;5.306;2022-09-29T01:09:49;4.60;;;2.25;;
27187;SDS011;14708;50.872;5.306;2022-09-29T01:12:18;3.13;;;2.00;;
27187;SDS011;14708;50.872;5.306;2022-09-29T01:14:44;3.45;;;1.85;;
27187;SDS011;14708;50.872;5.306;2022-09-29T01:17:11;3.95;;;2.55;;
27187;SDS011;14708;50.872;5.306;2022-09-29T01:28:56;2.50;;;1.85;;
27187;SDS011;14708;50.872;5.306;2022-09-29T01:31:43;3.63;;;1.92;;
27187;SDS011;14708;50.872;5.306;2022-09-29T01:39:24;5.30;;;2.20;;
27187;SDS011;14708;50.872;5.306;2022-09-29T01:42:08;3.95;;;1.85;;
27187;SDS011;14708;50.872;5.306;2022-09-29T01:45:07;3.22;;;2.00;;
27187;SDS011;14708;50.872;5.306;2022-09-29T01:47:59;2.20;;;1.50;;
27187;SDS011;14708;50.872;5.306;2022-09-29T01:50:51;3.42;;;2.17;;
27187;SDS011;14708;50.872;5.306;2022-09-29T01:53:25;2.08;;;1.58;;
27187;SDS011;14708;50.872;5.306;2022-09-29T01:55:58;2.97;;;1.77;;
27187;SDS011;14708;50.872;5.306;2022-09-29T01:58:32;3.28;;;2.00;;
27187;SDS011;14708;50.872;5.306;2022-09-29T02:01:20;3.17;;;1.83;;
27187;SDS011;14708;50.872;5.306;2022-09-29T02:03:50;3.70;;;1.90;;
27187;SDS011;14708;50.872;5.306;2022-09-29T02:06:22;2.22;;;1.55;;
27187;SDS011;14708;50.872;5.306;2022-09-29T02:08:55;2.80;;;1.77;;
27187;SDS011;14708;50.872;5.306;2022-09-29T02:11:26;2.25;;;1.65;;
27187;SDS011;14708;50.872;5.306;2022-09-29T02:16:48;2.80;;;1.90;;
27187;SDS011;14708;50.872;5.306;2022-09-29T02:19:36;3.50;;;2.00;;
27187;SDS011;14708;50.872;5.306;2022-09-29T02:22:06;3.85;;;2.25;;
27187;SDS011;14708;50.872;5.306;2022-09-29T02:24:32;3.47;;;2.00;;
27187;SDS011;14708;50.872;5.306;2022-09-29T02:26:57;2.20;;;1.67;;
27187;SDS011;14708;50.872;5.306;2022-09-29T02:29:23;2.80;;;1.73;;
27187;SDS011;14708;50.872;5.306;2022-09-29T02:31:49;2.47;;;1.52;;
27187;SDS011;14708;50.872;5.306;2022-09-29T02:34:18;4.80;;;2.20;;
27187;SDS011;14708;50.872;5.306;2022-09-29T02:39:47;2.20;;;1.60;;
27187;SDS011;14708;50.872;5.306;2022-09-29T02:42:28;2.92;;;1.88;;
27187;SDS011;14708;50.872;5.306;2022-09-29T02:45:13;2.50;;;1.60;;
27187;SDS011;14708;50.872;5.306;2022-09-29T02:54:06;2.60;;;1.70;;
27187;SDS011;14708;50.872;5.306;2022-09-29T02:59:21;1.98;;;1.52;;
27187;SDS011;14708;50.872;5.306;2022-09-29T03:01:52;2.25;;;1.52;;
27187;SDS011;14708;50.872;5.306;2022-09-29T03:04:20;2.28;;;1.40;;
27187;SDS011;14708;50.872;5.306;2022-09-29T03:06:47;2.75;;;1.55;;
27187;SDS011;14708;50.872;5.306;2022-09-29T03:09:13;2.30;;;1.58;;
27187;SDS011;14708;50.872;5.306;2022-09-29T03:11:39;2.22;;;1.75;;
27187;SDS011;14708;50.872;5.306;2022-09-29T03:14:04;2.08;;;1.45;;
27187;SDS011;14708;50.872;5.306;2022-09-29T03:16:31;2.00;;;1.60;;
27187;SDS011;14708;50.872;5.306;2022-09-29T03:18:57;2.33;;;1.70;;
27187;SDS011;14708;50.872;5.306;2022-09-29T03:21:22;2.55;;;1.60;;
27187;SDS011;14708;50.872;5.306;2022-09-29T03:23:48;2.17;;;1.63;;
27187;SDS011;14708;50.872;5.306;2022-09-29T03:26:14;2.45;;;1.52;;
27187;SDS011;14708;50.872;5.306;2022-09-29T03:28:39;3.17;;;1.85;;
27187;SDS011;14708;50.872;5.306;2022-09-29T03:31:06;1.85;;;1.42;;
27187;SDS011;14708;50.872;5.306;2022-09-29T03:33:33;4.20;;;1.60;;
27187;SDS011;14708;50.872;5.306;2022-09-29T03:36:03;2.22;;;1.45;;
27187;SDS011;14708;50.872;5.306;2022-09-29T03:38:33;2.80;;;1.52;;
27187;SDS011;14708;50.872;5.306;2022-09-29T03:40:59;1.83;;;1.40;;
27187;SDS011;14708;50.872;5.306;2022-09-29T03:43:24;2.55;;;1.77;;
27187;SDS011;14708;50.872;5.306;2022-09-29T03:45:50;2.97;;;1.88;;
27187;SDS011;14708;50.872;5.306;2022-09-29T03:48:18;2.40;;;1.67;;
27187;SDS011;14708;50.872;5.306;2022-09-29T03:50:44;1.60;;;1.30;;
27187;SDS011;14708;50.872;5.306;2022-09-29T03:53:10;2.22;;;1.60;;
27187;SDS011;14708;50.872;5.306;2022-09-29T03:55:36;2.28;;;1.75;;
27187;SDS011;14708;50.872;5.306;2022-09-29T03:58:02;2.58;;;1.73;;
27187;SDS011;14708;50.872;5.306;2022-09-29T04:00:27;2.05;;;1.80;;
27187;SDS011;14708;50.872;5.306;2022-09-29T04:02:53;2.13;;;1.40;;
27187;SDS011;14708;50.872;5.306;2022-09-29T04:05:19;2.00;;;1.42;;
27187;SDS011;14708;50.872;5.306;2022-09-29T04:07:45;1.98;;;1.30;;
27187;SDS011;14708;50.872;5.306;2022-09-29T04:10:11;2.60;;;1.65;;
27187;SDS011;14708;50.872;5.306;2022-09-29T04:12:37;1.50;;;1.40;;
27187;SDS011;14708;50.872;5.306;2022-09-29T04:15:02;1.88;;;1.45;;
27187;SDS011;14708;50.872;5.306;2022-09-29T04:17:29;3.78;;;1.90;;
27187;SDS011;14708;50.872;5.306;2022-09-29T04:19:54;1.73;;;1.40;;
27187;SDS011;14708;50.872;5.306;2022-09-29T04:22:20;2.05;;;1.52;;
27187;SDS011;14708;50.872;5.306;2022-09-29T04:24:46;1.88;;;1.27;;
27187;SDS011;14708;50.872;5.306;2022-09-29T04:27:16;1.98;;;1.40;;
27187;SDS011;14708;50.872;5.306;2022-09-29T04:29:42;2.95;;;1.42;;
27187;SDS011;14708;50.872;5.306;2022-09-29T04:32:08;3.85;;;2.45;;
27187;SDS011;14708;50.872;5.306;2022-09-29T04:34:33;5.35;;;2.58;;
27187;SDS011;14708;50.872;5.306;2022-09-29T04:36:59;4.65;;;2.35;;
27187;SDS011;14708;50.872;5.306;2022-09-29T04:39:25;4.63;;;2.35;;
27187;SDS011;14708;50.872;5.306;2022-09-29T04:41:51;3.22;;;2.30;;
27187;SDS011;14708;50.872;5.306;2022-09-29T04:44:16;4.72;;;2.00;;
27187;SDS011;14708;50.872;5.306;2022-09-29T04:46:46;8.55;;;2.53;;
27187;SDS011;14708;50.872;5.306;2022-09-29T04:49:13;3.10;;;2.13;;
27187;SDS011;14708;50.872;5.306;2022-09-29T04:51:38;3.22;;;1.73;;
27187;SDS011;14708;50.872;5.306;2022-09-29T04:54:04;3.63;;;2.00;;
27187;SDS011;14708;50.872;5.306;2022-09-29T04:56:30;6.03;;;2.60;;
27187;SDS011;14708;50.872;5.306;2022-09-29T04:58:56;3.17;;;2.38;;
27187;SDS011;14708;50.872;5.306;2022-09-29T05:01:22;2.47;;;2.03;;
27187;SDS011;14708;50.872;5.306;2022-09-29T05:03:48;3.35;;;2.20;;
27187;SDS011;14708;50.872;5.306;2022-09-29T05:06:14;4.75;;;2.55;;
27187;SDS011;14708;50.872;5.306;2022-09-29T05:08:39;3.85;;;2.22;;
27187;SDS011;14708;50.872;5.306;2022-09-29T05:11:06;3.65;;;1.92;;
27187;SDS011;14708;50.872;5.306;2022-09-29T05:13:33;5.50;;;2.10;;
27187;SDS011;14708;50.872;5.306;2022-09-29T05:15:58;2.47;;;2.08;;
27187;SDS011;14708;50.872;5.306;2022-09-29T05:18:25;5.03;;;2.28;;
27187;SDS011;14708;50.872;5.306;2022-09-29T05:20:50;3.20;;;2.13;;
27187;SDS011;14708;50.872;5.306;2022-09-29T05:23:17;2.70;;;2.15;;
27187;SDS011;14708;50.872;5.306;2022-09-29T05:25:43;2.65;;;1.85;;
27187;SDS011;14708;50.872;5.306;2022-09-29T05:28:09;3.45;;;2.40;;
27187;SDS011;14708;50.872;5.306;2022-09-29T05:30:36;2.85;;;1.90;;
27187;SDS011;14708;50.872;5.306;2022-09-29T05:33:02;3.25;;;2.20;;
27187;SDS011;14708;50.872;5.306;2022-09-29T05:35:27;3.00;;;2.30;;
27187;SDS011;14708;50.872;5.306;2022-09-29T05:37:53;3.25;;;2.40;;
27187;SDS011;14708;50.872;5.306;2022-09-29T05:40:19;3.13;;;2.03;;
27187;SDS011;14708;50.872;5.306;2022-09-29T05:42:48;3.10;;;1.98;;
27187;SDS011;14708;50.872;5.306;2022-09-29T05:45:13;3.30;;;2.13;;
27187;SDS011;14708;50.872;5.306;2022-09-29T05:47:43;2.00;;;1.77;;
27187;SDS011;14708;50.872;5.306;2022-09-29T05:50:09;2.75;;;1.90;;
27187;SDS011;14708;50.872;5.306;2022-09-29T05:52:36;5.00;;;2.47;;
27187;SDS011;14708;50.872;5.306;2022-09-29T05:55:02;5.70;;;2.70;;
27187;SDS011;14708;50.872;5.306;2022-09-29T05:57:28;7.78;;;2.50;;
27187;SDS011;14708;50.872;5.306;2022-09-29T05:59:54;3.55;;;2.35;;
27187;SDS011;14708;50.872;5.306;2022-09-29T06:02:20;4.72;;;2.58;;
27187;SDS011;14708;50.872;5.306;2022-09-29T06:04:46;7.45;;;3.00;;
27187;SDS011;14708;50.872;5.306;2022-09-29T06:07:11;4.00;;;2.50;;
27187;SDS011;14708;50.872;5.306;2022-09-29T06:09:37;4.82;;;2.67;;
27187;SDS011;14708;50.872;5.306;2022-09-29T06:12:02;5.55;;;2.67;;
27187;SDS011;14708;50.872;5.306;2022-09-29T06:14:28;5.15;;;2.40;;
27187;SDS011;14708;50.872;5.306;2022-09-29T06:16:53;5.65;;;2.75;;
27187;SDS011;14708;50.872;5.306;2022-09-29T06:19:19;5.63;;;2.40;;
27187;SDS011;14708;50.872;5.306;2022-09-29T06:21:45;5.10;;;2.70;;
27187;SDS011;14708;50.872;5.306;2022-09-29T06:24:11;6.53;;;2.38;;
27187;SDS011;14708;50.872;5.306;2022-09-29T06:26:37;5.35;;;2.47;;
27187;SDS011;14708;50.872;5.306;2022-09-29T06:29:03;7.63;;;2.20;;
27187;SDS011;14708;50.872;5.306;2022-09-29T06:31:29;6.72;;;2.67;;
27187;SDS011;14708;50.872;5.306;2022-09-29T06:33:56;4.95;;;2.50;;
27187;SDS011;14708;50.872;5.306;2022-09-29T06:36:33;2.97;;;2.03;;
27187;SDS011;14708;50.872;5.306;2022-09-29T06:39:27;4.43;;;2.20;;
27187;SDS011;14708;50.872;5.306;2022-09-29T06:41:54;7.00;;;2.30;;
27187;SDS011;14708;50.872;5.306;2022-09-29T06:44:23;5.43;;;2.33;;
27187;SDS011;14708;50.872;5.306;2022-09-29T06:46:50;5.72;;;2.28;;
27187;SDS011;14708;50.872;5.306;2022-09-29T06:49:17;8.27;;;2.60;;
27187;SDS011;14708;50.872;5.306;2022-09-29T06:51:43;4.32;;;2.10;;
27187;SDS011;14708;50.872;5.306;2022-09-29T06:54:10;7.70;;;2.30;;
27187;SDS011;14708;50.872;5.306;2022-09-29T06:56:36;4.45;;;2.40;;
27187;SDS011;14708;50.872;5.306;2022-09-29T06:59:02;12.25;;;4.20;;
27187;SDS011;14708;50.872;5.306;2022-09-29T07:01:28;12.23;;;3.65;;
27187;SDS011;14708;50.872;5.306;2022-09-29T07:03:54;9.90;;;4.35;;
27187;SDS011;14708;50.872;5.306;2022-09-29T07:06:19;10.18;;;3.38;;
27187;SDS011;14708;50.872;5.306;2022-09-29T07:08:45;13.70;;;2.70;;
27187;SDS011;14708;50.872;5.306;2022-09-29T07:11:11;6.65;;;3.13;;
27187;SDS011;14708;50.872;5.306;2022-09-29T07:13:37;13.25;;;3.50;;
27187;SDS011;14708;50.872;5.306;2022-09-29T07:16:06;9.57;;;3.58;;
27187;SDS011;14708;50.872;5.306;2022-09-29T07:18:34;14.85;;;4.03;;
27187;SDS011;14708;50.872;5.306;2022-09-29T07:21:02;12.65;;;3.35;;
27187;SDS011;14708;50.872;5.306;2022-09-29T07:23:28;12.68;;;4.43;;
27187;SDS011;14708;50.872;5.306;2022-09-29T07:25:54;21.05;;;5.03;;
27187;SDS011;14708;50.872;5.306;2022-09-29T07:28:20;39.63;;;6.75;;
27187;SDS011;14708;50.872;5.306;2022-09-29T07:30:45;22.42;;;5.88;;
27187;SDS011;14708;50.872;5.306;2022-09-29T07:33:11;15.20;;;4.40;;
27187;SDS011;14708;50.872;5.306;2022-09-29T07:35:36;23.83;;;5.80;;
27187;SDS011;14708;50.872;5.306;2022-09-29T07:38:02;26.38;;;6.10;;
27187;SDS011;14708;50.872;5.306;2022-09-29T07:40:28;20.70;;;6.15;;
27187;SDS011;14708;50.872;5.306;2022-09-29T07:42:53;28.98;;;7.35;;
27187;SDS011;14708;50.872;5.306;2022-09-29T07:45:19;29.80;;;6.22;;
27187;SDS011;14708;50.872;5.306;2022-09-29T07:47:44;32.50;;;7.40;;
27187;SDS011;14708;50.872;5.306;2022-09-29T07:50:10;29.30;;;6.97;;
27187;SDS011;14708;50.872;5.306;2022-09-29T07:52:36;29.02;;;7.10;;
27187;SDS011;14708;50.872;5.306;2022-09-29T07:55:02;29.83;;;6.85;;
27187;SDS011;14708;50.872;5.306;2022-09-29T07:57:28;33.85;;;8.45;;
27187;SDS011;14708;50.872;5.306;2022-09-29T07:59:54;21.48;;;7.13;;
27187;SDS011;14708;50.872;5.306;2022-09-29T08:02:22;30.00;;;7.25;;
27187;SDS011;14708;50.872;5.306;2022-09-29T08:04:47;30.73;;;6.93;;
27187;SDS011;14708;50.872;5.306;2022-09-29T08:07:13;32.50;;;7.45;;
27187;SDS011;14708;50.872;5.306;2022-09-29T08:09:38;26.55;;;6.90;;
27187;SDS011;14708;50.872;5.306;2022-09-29T08:12:04;22.45;;;7.28;;
27187;SDS011;14708;50.872;5.306;2022-09-29T08:14:29;19.48;;;6.40;;
27187;SDS011;14708;50.872;5.306;2022-09-29T08:16:55;33.85;;;7.20;;
27187;SDS011;14708;50.872;5.306;2022-09-29T08:19:21;28.58;;;7.38;;
27187;SDS011;14708;50.872;5.306;2022-09-29T08:21:46;26.38;;;6.38;;
27187;SDS011;14708;50.872;5.306;2022-09-29T08:24:13;26.25;;;6.65;;
27187;SDS011;14708;50.872;5.306;2022-09-29T08:26:41;26.15;;;6.85;;
27187;SDS011;14708;50.872;5.306;2022-09-29T08:29:07;22.02;;;6.30;;
27187;SDS011;14708;50.872;5.306;2022-09-29T08:31:33;27.98;;;6.78;;
27187;SDS011;14708;50.872;5.306;2022-09-29T08:33:59;27.00;;;6.18;;
27187;SDS011;14708;50.872;5.306;2022-09-29T08:36:24;20.00;;;6.35;;
27187;SDS011;14708;50.872;5.306;2022-09-29T08:38:51;30.35;;;6.95;;
27187;SDS011;14708;50.872;5.306;2022-09-29T08:46:42;24.02;;;6.10;;
27187;SDS011;14708;50.872;5.306;2022-09-29T08:49:19;21.17;;;5.95;;
27187;SDS011;14708;50.872;5.306;2022-09-29T08:51:50;23.77;;;6.38;;
27187;SDS011;14708;50.872;5.306;2022-09-29T08:54:29;29.10;;;6.68;;
27187;SDS011;14708;50.872;5.306;2022-09-29T08:56:58;16.98;;;6.00;;
27187;SDS011;14708;50.872;5.306;2022-09-29T08:59:25;18.67;;;5.40;;
27187;SDS011;14708;50.872;5.306;2022-09-29T09:13:30;15.13;;;5.45;;
27187;SDS011;14708;50.872;5.306;2022-09-29T09:21:40;18.10;;;6.05;;
27187;SDS011;14708;50.872;5.306;2022-09-29T09:26:40;22.00;;;5.18;;
27187;SDS011;14708;50.872;5.306;2022-09-29T09:29:13;15.30;;;5.13;;
27187;SDS011;14708;50.872;5.306;2022-09-29T09:31:48;21.25;;;6.07;;
27187;SDS011;14708;50.872;5.306;2022-09-29T09:34:19;13.80;;;5.13;;
27187;SDS011;14708;50.872;5.306;2022-09-29T09:37:09;20.88;;;5.60;;
27187;SDS011;14708;50.872;5.306;2022-09-29T09:42:13;13.65;;;4.93;;
27187;SDS011;14708;50.872;5.306;2022-09-29T09:44:46;25.25;;;5.38;;
27187;SDS011;14708;50.872;5.306;2022-09-29T09:49:48;16.02;;;5.30;;
27187;SDS011;14708;50.872;5.306;2022-09-29T09:54:52;19.33;;;4.82;;
27187;SDS011;14708;50.872;5.306;2022-09-29T10:00:04;17.15;;;5.25;;
27187;SDS011;14708;50.872;5.306;2022-09-29T10:02:56;15.07;;;4.78;;
27187;SDS011;14708;50.872;5.306;2022-09-29T10:08:22;20.63;;;4.90;;
27187;SDS011;14708;50.872;5.306;2022-09-29T10:10:52;13.43;;;4.57;;
27187;SDS011;14708;50.872;5.306;2022-09-29T10:13:18;18.38;;;5.63;;
27187;SDS011;14708;50.872;5.306;2022-09-29T10:15:54;12.27;;;3.95;;
27187;SDS011;14708;50.872;5.306;2022-09-29T10:18:35;13.75;;;4.63;;
27187;SDS011;14708;50.872;5.306;2022-09-29T10:23:56;15.98;;;4.22;;
27187;SDS011;14708;50.872;5.306;2022-09-29T10:26:41;9.68;;;3.90;;
27187;SDS011;14708;50.872;5.306;2022-09-29T10:29:24;20.42;;;5.68;;
27187;SDS011;14708;50.872;5.306;2022-09-29T10:32:08;11.55;;;3.75;;
27187;SDS011;14708;50.872;5.306;2022-09-29T10:35:22;13.70;;;4.82;;
27187;SDS011;14708;50.872;5.306;2022-09-29T10:38:00;10.55;;;3.78;;
27187;SDS011;14708;50.872;5.306;2022-09-29T10:40:30;15.73;;;4.68;;
27187;SDS011;14708;50.872;5.306;2022-09-29T10:42:55;16.45;;;4.47;;
27187;SDS011;14708;50.872;5.306;2022-09-29T10:50:26;14.05;;;4.53;;
27187;SDS011;14708;50.872;5.306;2022-09-29T10:52:54;14.88;;;4.30;;
27187;SDS011;14708;50.872;5.306;2022-09-29T10:55:22;11.02;;;4.07;;
27187;SDS011;14708;50.872;5.306;2022-09-29T10:57:53;11.85;;;4.22;;
27187;SDS011;14708;50.872;5.306;2022-09-29T11:00:25;13.00;;;4.80;;
27187;SDS011;14708;50.872;5.306;2022-09-29T11:03:18;23.77;;;4.57;;
27187;SDS011;14708;50.872;5.306;2022-09-29T11:06:05;9.73;;;3.63;;
27187;SDS011;14708;50.872;5.306;2022-09-29T11:08:54;17.55;;;4.32;;
27187;SDS011;14708;50.872;5.306;2022-09-29T11:11:20;14.27;;;4.50;;
27187;SDS011;14708;50.872;5.306;2022-09-29T11:13:50;10.82;;;4.38;;
27187;SDS011;14708;50.872;5.306;2022-09-29T11:16:30;14.82;;;4.30;;
27187;SDS011;14708;50.872;5.306;2022-09-29T11:18:59;10.85;;;4.40;;
27187;SDS011;14708;50.872;5.306;2022-09-29T11:24:36;13.82;;;4.47;;
27187;SDS011;14708;50.872;5.306;2022-09-29T11:27:24;12.98;;;4.40;;
27187;SDS011;14708;50.872;5.306;2022-09-29T11:41:39;17.70;;;5.47;;
27187;SDS011;14708;50.872;5.306;2022-09-29T11:49:50;14.63;;;4.78;;
27187;SDS011;14708;50.872;5.306;2022-09-29T11:52:33;16.75;;;4.80;;
27187;SDS011;14708;50.872;5.306;2022-09-29T12:05:55;13.32;;;4.53;;
27187;SDS011;14708;50.872;5.306;2022-09-29T12:08:53;13.93;;;4.32;;
27187;SDS011;14708;50.872;5.306;2022-09-29T12:11:34;12.88;;;4.72;;
27187;SDS011;14708;50.872;5.306;2022-09-29T12:16:41;12.73;;;4.50;;
27187;SDS011;14708;50.872;5.306;2022-09-29T12:19:17;16.35;;;4.68;;
27187;SDS011;14708;50.872;5.306;2022-09-29T12:21:48;14.10;;;4.13;;
27187;SDS011;14708;50.872;5.306;2022-09-29T12:26:50;15.63;;;4.50;;
27187;SDS011;14708;50.872;5.306;2022-09-29T12:29:33;15.35;;;4.68;;
27187;SDS011;14708;50.872;5.306;2022-09-29T12:34:50;9.93;;;3.90;;
27187;SDS011;14708;50.872;5.306;2022-09-29T12:37:37;9.25;;;3.80;;
27187;SDS011;14708;50.872;5.306;2022-09-29T12:40:16;12.82;;;4.53;;
27187;SDS011;14708;50.872;5.306;2022-09-29T12:51:01;11.93;;;4.13;;
27187;SDS011;14708;50.872;5.306;2022-09-29T12:53:41;12.68;;;4.57;;
27187;SDS011;14708;50.872;5.306;2022-09-29T12:59:05;13.60;;;4.75;;
27187;SDS011;14708;50.872;5.306;2022-09-29T13:01:34;14.25;;;4.22;;
27187;SDS011;14708;50.872;5.306;2022-09-29T13:18:31;16.63;;;5.18;;
27187;SDS011;14708;50.872;5.306;2022-09-29T13:24:17;12.55;;;3.80;;
27187;SDS011;14708;50.872;5.306;2022-09-29T13:26:58;10.23;;;3.67;;
27187;SDS011;14708;50.872;5.306;2022-09-29T13:29:49;21.00;;;5.00;;
27187;SDS011;14708;50.872;5.306;2022-09-29T13:32:43;11.48;;;4.10;;
27187;SDS011;14708;50.872;5.306;2022-09-29T13:35:13;13.63;;;4.35;;
27187;SDS011;14708;50.872;5.306;2022-09-29T13:38:06;15.30;;;4.70;;
27187;SDS011;14708;50.872;5.306;2022-09-29T13:40:31;8.90;;;3.95;;
27187;SDS011;14708;50.872;5.306;2022-09-29T13:42:59;10.75;;;4.57;;
27187;SDS011;14708;50.872;5.306;2022-09-29T13:47:59;8.73;;;3.17;;
27187;SDS011;14708;50.872;5.306;2022-09-29T13:58:35;9.45;;;3.95;;
27187;SDS011;14708;50.872;5.306;2022-09-29T14:01:35;8.77;;;3.45;;
27187;SDS011;14708;50.872;5.306;2022-09-29T14:07:04;13.00;;;3.70;;
27187;SDS011;14708;50.872;5.306;2022-09-29T14:09:32;12.55;;;4.25;;
27187;SDS011;14708;50.872;5.306;2022-09-29T14:12:02;15.23;;;4.15;;
27187;SDS011;14708;50.872;5.306;2022-09-29T14:14:33;12.45;;;3.95;;
27187;SDS011;14708;50.872;5.306;2022-09-29T14:30:52;12.35;;;3.95;;
27187;SDS011;14708;50.872;5.306;2022-09-29T14:33:14;70.72;;;14.77;;
27187;SDS011;14708;50.872;5.306;2022-09-29T14:35:42;16.23;;;5.30;;
27187;SDS011;14708;50.872;5.306;2022-09-29T14:38:16;24.10;;;7.97;;
27187;SDS011;14708;50.872;5.306;2022-09-29T14:41:01;21.15;;;5.75;;
27187;SDS011;14708;50.872;5.306;2022-09-29T14:43:52;22.05;;;7.68;;
27187;SDS011;14708;50.872;5.306;2022-09-29T14:49:21;32.63;;;9.70;;
27187;SDS011;14708;50.872;5.306;2022-09-29T14:55:13;34.95;;;10.32;;
27187;SDS011;14708;50.872;5.306;2022-09-29T15:02:45;34.15;;;10.68;;
27187;SDS011;14708;50.872;5.306;2022-09-29T15:05:27;35.28;;;10.45;;
27187;SDS011;14708;50.872;5.306;2022-09-29T15:07:57;36.60;;;12.77;;
27187;SDS011;14708;50.872;5.306;2022-09-29T15:10:28;42.60;;;12.70;;
27187;SDS011;14708;50.872;5.306;2022-09-29T15:13:18;35.92;;;11.10;;
27187;SDS011;14708;50.872;5.306;2022-09-29T15:16:09;31.35;;;10.35;;
27187;SDS011;14708;50.872;5.306;2022-09-29T15:21:21;25.52;;;7.97;;
27187;SDS011;14708;50.872;5.306;2022-09-29T15:26:52;31.50;;;7.63;;
27187;SDS011;14708;50.872;5.306;2022-09-29T15:29:18;32.47;;;9.07;;
27187;SDS011;14708;50.872;5.306;2022-09-29T15:31:45;23.15;;;7.95;;
27187;SDS011;14708;50.872;5.306;2022-09-29T15:34:16;28.30;;;8.77;;
27187;SDS011;14708;50.872;5.306;2022-09-29T15:36:46;25.42;;;9.18;;
27187;SDS011;14708;50.872;5.306;2022-09-29T15:42:01;21.65;;;7.25;;
27187;SDS011;14708;50.872;5.306;2022-09-29T15:44:36;21.42;;;7.03;;
27187;SDS011;14708;50.872;5.306;2022-09-29T15:47:01;26.42;;;7.78;;
27187;SDS011;14708;50.872;5.306;2022-09-29T15:49:27;26.40;;;8.38;;
27187;SDS011;14708;50.872;5.306;2022-09-29T15:54:38;24.42;;;7.50;;
27187;SDS011;14708;50.872;5.306;2022-09-29T15:57:24;29.67;;;7.30;;
27187;SDS011;14708;50.872;5.306;2022-09-29T16:05:31;25.10;;;7.43;;
27187;SDS011;14708;50.872;5.306;2022-09-29T16:10:55;22.52;;;7.07;;
27187;SDS011;14708;50.872;5.306;2022-09-29T16:13:31;24.17;;;7.22;;
27187;SDS011;14708;50.872;5.306;2022-09-29T16:16:01;26.67;;;7.57;;
27187;SDS011;14708;50.872;5.306;2022-09-29T16:18:35;24.07;;;6.70;;
27187;SDS011;14708;50.872;5.306;2022-09-29T16:21:11;25.15;;;7.25;;
27187;SDS011;14708;50.872;5.306;2022-09-29T16:23:43;17.67;;;6.43;;
27187;SDS011;14708;50.872;5.306;2022-09-29T16:26:14;22.60;;;7.13;;
27187;SDS011;14708;50.872;5.306;2022-09-29T16:28:58;19.27;;;7.18;;
27187;SDS011;14708;50.872;5.306;2022-09-29T16:31:27;33.63;;;8.13;;
27187;SDS011;14708;50.872;5.306;2022-09-29T16:33:55;20.35;;;7.07;;
27187;SDS011;14708;50.872;5.306;2022-09-29T16:36:28;23.50;;;6.63;;
27187;SDS011;14708;50.872;5.306;2022-09-29T16:39:00;20.67;;;6.95;;
27187;SDS011;14708;50.872;5.306;2022-09-29T16:46:41;18.05;;;6.55;;
27187;SDS011;14708;50.872;5.306;2022-09-29T16:49:29;27.73;;;7.32;;
27187;SDS011;14708;50.872;5.306;2022-09-29T16:52:14;19.48;;;6.38;;
27187;SDS011;14708;50.872;5.306;2022-09-29T16:54:51;18.38;;;7.05;;
27187;SDS011;14708;50.872;5.306;2022-09-29T16:57:23;23.13;;;6.63;;
27187;SDS011;14708;50.872;5.306;2022-09-29T16:59:53;18.27;;;6.47;;
27187;SDS011;14708;50.872;5.306;2022-09-29T17:02:23;18.38;;;6.85;;
27187;SDS011;14708;50.872;5.306;2022-09-29T17:04:51;18.48;;;6.88;;
27187;SDS011;14708;50.872;5.306;2022-09-29T17:07:18;19.52;;;6.40;;
27187;SDS011;14708;50.872;5.306;2022-09-29T17:09:50;22.52;;;6.95;;
27187;SDS011;14708;50.872;5.306;2022-09-29T17:12:19;20.63;;;6.80;;
27187;SDS011;14708;50.872;5.306;2022-09-29T17:14:45;20.13;;;6.38;;
27187;SDS011;14708;50.872;5.306;2022-09-29T17:17:16;23.77;;;6.78;;
27187;SDS011;14708;50.872;5.306;2022-09-29T17:19:46;21.38;;;6.20;;
27187;SDS011;14708;50.872;5.306;2022-09-29T17:22:29;20.88;;;6.15;;
27187;SDS011;14708;50.872;5.306;2022-09-29T17:25:00;19.33;;;6.03;;
27187;SDS011;14708;50.872;5.306;2022-09-29T17:27:27;19.70;;;5.80;;
27187;SDS011;14708;50.872;5.306;2022-09-29T17:30:12;16.67;;;6.00;;
27187;SDS011;14708;50.872;5.306;2022-09-29T17:32:42;18.70;;;6.35;;
27187;SDS011;14708;50.872;5.306;2022-09-29T17:35:10;18.10;;;6.25;;
27187;SDS011;14708;50.872;5.306;2022-09-29T17:37:41;18.77;;;6.32;;
27187;SDS011;14708;50.872;5.306;2022-09-29T17:40:18;18.45;;;5.60;;
27187;SDS011;14708;50.872;5.306;2022-09-29T17:42:49;12.80;;;4.85;;
27187;SDS011;14708;50.872;5.306;2022-09-29T17:45:15;14.63;;;5.63;;
27187;SDS011;14708;50.872;5.306;2022-09-29T17:47:44;20.30;;;5.72;;
27187;SDS011;14708;50.872;5.306;2022-09-29T17:50:30;22.75;;;5.85;;
27187;SDS011;14708;50.872;5.306;2022-09-29T17:53:00;16.67;;;5.53;;
27187;SDS011;14708;50.872;5.306;2022-09-29T17:55:28;19.42;;;5.95;;
27187;SDS011;14708;50.872;5.306;2022-09-29T17:57:55;14.20;;;6.03;;
27187;SDS011;14708;50.872;5.306;2022-09-29T18:00:29;17.27;;;5.85;;
27187;SDS011;14708;50.872;5.306;2022-09-29T18:03:04;14.55;;;4.65;;
27187;SDS011;14708;50.872;5.306;2022-09-29T18:05:30;15.88;;;5.15;;
27187;SDS011;14708;50.872;5.306;2022-09-29T18:07:57;13.57;;;5.13;;
27187;SDS011;14708;50.872;5.306;2022-09-29T18:10:25;15.70;;;5.93;;
27187;SDS011;14708;50.872;5.306;2022-09-29T18:12:55;14.38;;;5.10;;
27187;SDS011;14708;50.872;5.306;2022-09-29T18:15:21;15.50;;;4.90;;
27187;SDS011;14708;50.872;5.306;2022-09-29T18:17:47;15.10;;;4.82;;
27187;SDS011;14708;50.872;5.306;2022-09-29T18:20:13;14.55;;;4.95;;
27187;SDS011;14708;50.872;5.306;2022-09-29T18:22:41;14.85;;;5.25;;
27187;SDS011;14708;50.872;5.306;2022-09-29T18:25:13;13.90;;;4.95;;
27187;SDS011;14708;50.872;5.306;2022-09-29T18:27:41;16.67;;;5.05;;
27187;SDS011;14708;50.872;5.306;2022-09-29T18:32:50;12.85;;;5.15;;
27187;SDS011;14708;50.872;5.306;2022-09-29T18:35:21;12.32;;;4.95;;
27187;SDS011;14708;50.872;5.306;2022-09-29T18:37:48;15.02;;;5.78;;